Time;durP1;ratioP1;P1;durP2;ratioP2;P2;SDS_P1;SDS_P2;PMS_P1;PMS_P2;Temp;Humidity;BMP_temperature;BMP_pressure;BME280_temperature;BME280_humidity;BME280_pressure;Samples;Min_cycle;Max_cycle;Signal;HPM_P1;HPM_P2
2023/01/21 00:02:08;;;;;;;14.48;6.45;;;;;;;;;;7385687;19;20334;-73
2023/01/21 00:04:36;;;;;;;15.88;9.40;;;;;;;;;;7385073;19;20001;-73
2023/01/21 00:07:05;;;;;;;20.75;9.93;;;;;;;;;;7388316;19;20352;-73
2023/01/21 00:09:31;;;;;;;18.45;7.68;;;;;;;;;;7390172;19;20007;-73
2023/01/21 00:11:57;;;;;;;16.45;7.80;;;;;;;;;;7393005;19;20472;-73
2023/01/21 00:14:22;;;;;;;23.58;11.25;;;;;;;;;;7390667;19;19995;-73
2023/01/21 00:16:48;;;;;;;18.00;10.30;;;;;;;;;;7391008;19;20003;-73
2023/01/21 00:19:13;;;;;;;21.35;10.52;;;;;;;;;;7392044;19;20330;-73
2023/01/21 00:21:38;;;;;;;20.08;10.65;;;;;;;;;;7389956;19;19999;-74
2023/01/21 00:24:04;;;;;;;9.85;5.35;;;;;;;;;;7392058;19;19991;-73
2023/01/21 00:26:29;;;;;;;13.55;7.90;;;;;;;;;;7390357;19;19994;-73
2023/01/21 00:28:54;;;;;;;16.85;10.13;;;;;;;;;;7391882;19;20193;-72
2023/01/21 00:31:20;;;;;;;25.30;11.10;;;;;;;;;;7392706;19;20006;-73
2023/01/21 00:33:47;;;;;;;13.05;7.88;;;;;;;;;;7391884;19;20006;-73
2023/01/21 00:36:17;;;;;;;22.30;11.07;;;;;;;;;;7392376;19;20464;-73
2023/01/21 00:38:42;;;;;;;19.58;9.70;;;;;;;;;;7391945;19;20018;-72
2023/01/21 00:41:10;;;;;;;24.27;10.98;;;;;;;;;;7393619;19;19991;-74
2023/01/21 00:43:36;;;;;;;16.98;8.77;;;;;;;;;;7392156;19;20002;-73
2023/01/21 00:46:02;;;;;;;15.85;9.75;;;;;;;;;;7391892;19;20456;-73
2023/01/21 00:48:27;;;;;;;13.73;7.85;;;;;;;;;;7389614;19;20150;-75
2023/01/21 00:50:54;;;;;;;17.80;9.57;;;;;;;;;;7392967;19;19995;-73
2023/01/21 00:53:22;;;;;;;27.20;12.27;;;;;;;;;;7390611;19;20003;-73
2023/01/21 00:55:47;;;;;;;21.48;9.82;;;;;;;;;;7393364;19;20091;-73
2023/01/21 00:58:12;;;;;;;22.60;10.10;;;;;;;;;;7393710;19;20003;-74
2023/01/21 01:00:38;;;;;;;11.77;6.78;;;;;;;;;;7391539;19;19998;-73
2023/01/21 01:03:03;;;;;;;18.38;7.13;;;;;;;;;;7392847;19;20342;-74
2023/01/21 01:05:29;;;;;;;22.10;9.93;;;;;;;;;;7392005;19;20022;-73
2023/01/21 01:07:54;;;;;;;18.88;8.43;;;;;;;;;;7390731;19;20025;-73
2023/01/21 01:10:19;;;;;;;19.60;9.70;;;;;;;;;;7390119;19;20005;-74
2023/01/21 01:12:45;;;;;;;21.92;10.88;;;;;;;;;;7390993;19;19998;-74
2023/01/21 01:15:10;;;;;;;23.90;12.02;;;;;;;;;;7391469;19;20477;-73
2023/01/21 01:17:35;;;;;;;14.13;7.00;;;;;;;;;;7390406;19;19994;-74
2023/01/21 01:20:01;;;;;;;29.33;12.68;;;;;;;;;;7389280;19;20002;-73
2023/01/21 01:22:26;;;;;;;23.70;13.23;;;;;;;;;;7391165;19;19998;-74
2023/01/21 01:24:52;;;;;;;27.95;12.27;;;;;;;;;;7390442;19;19998;-74
2023/01/21 01:27:17;;;;;;;26.15;12.68;;;;;;;;;;7387828;19;20033;-74
2023/01/21 01:29:42;;;;;;;27.08;13.30;;;;;;;;;;7388214;19;20514;-73
2023/01/21 01:32:09;;;;;;;19.13;8.90;;;;;;;;;;7390708;19;20368;-72
2023/01/21 01:34:34;;;;;;;30.20;13.70;;;;;;;;;;7390293;19;20114;-72
2023/01/21 01:36:59;;;;;;;25.83;11.80;;;;;;;;;;7390328;19;20461;-73
2023/01/21 01:39:25;;;;;;;29.20;12.98;;;;;;;;;;7389883;19;20342;-73
2023/01/21 01:41:50;;;;;;;18.92;9.80;;;;;;;;;;7393907;19;20043;-73
2023/01/21 01:44:52;;;;;;;26.60;13.60;;;;;;;;;;7388144;19;20002;-74
2023/01/21 01:47:20;;;;;;;26.83;11.82;;;;;;;;;;7416845;19;19999;-73
2023/01/21 01:49:46;;;;;;;27.00;12.60;;;;;;;;;;7417975;19;19998;-73
2023/01/21 01:52:13;;;;;;;27.67;11.07;;;;;;;;;;7418559;19;20090;-73
2023/01/21 01:54:43;;;;;;;30.83;14.18;;;;;;;;;;7401748;19;19999;-73
2023/01/21 01:57:11;;;;;;;18.42;10.68;;;;;;;;;;7398338;19;20015;-72
2023/01/21 01:59:37;;;;;;;13.70;7.20;;;;;;;;;;7397511;19;19998;-74
2023/01/21 02:02:07;;;;;;;30.65;14.05;;;;;;;;;;7390075;19;20602;-74
2023/01/21 02:04:40;;;;;;;17.30;9.77;;;;;;;;;;7389725;19;20002;-73
2023/01/21 02:07:06;;;;;;;33.92;15.35;;;;;;;;;;7388123;19;19994;-75
2023/01/21 02:09:31;;;;;;;26.83;13.20;;;;;;;;;;7388581;19;20393;-74
2023/01/21 02:12:02;;;;;;;33.65;14.90;;;;;;;;;;7389219;19;20015;-75
2023/01/21 02:14:29;;;;;;;30.60;14.48;;;;;;;;;;7389922;19;20001;-73
2023/01/21 02:17:00;;;;;;;33.47;14.35;;;;;;;;;;7387759;19;20015;-73
2023/01/21 02:19:41;;;;;;;27.23;12.88;;;;;;;;;;7389181;19;20337;-73
2023/01/21 02:22:20;;;;;;;32.88;14.70;;;;;;;;;;7392134;19;20082;-73
2023/01/21 02:25:24;;;;;;;29.23;13.23;;;;;;;;;;7388398;19;20005;-74
2023/01/21 02:27:55;;;;;;;26.48;13.35;;;;;;;;;;7387946;19;20019;-74
2023/01/21 02:30:51;;;;;;;31.90;14.88;;;;;;;;;;7387620;19;20386;-73
2023/01/21 02:33:36;;;;;;;17.67;9.35;;;;;;;;;;7388603;19;20002;-75
2023/01/21 02:36:09;;;;;;;19.83;10.20;;;;;;;;;;7388890;19;19994;-74
2023/01/21 02:38:37;;;;;;;31.40;13.20;;;;;;;;;;7388040;19;20397;-74
2023/01/21 02:41:02;;;;;;;29.13;11.13;;;;;;;;;;7388562;19;20066;-73
2023/01/21 02:43:52;;;;;;;23.95;11.55;;;;;;;;;;7389085;19;20424;-75
2023/01/21 02:46:25;;;;;;;21.50;10.27;;;;;;;;;;7387969;19;20372;-74
2023/01/21 02:48:59;;;;;;;27.88;11.50;;;;;;;;;;7388082;19;20400;-74
2023/01/21 02:51:24;;;;;;;27.75;11.73;;;;;;;;;;7387877;19;19999;-74
2023/01/21 02:53:49;;;;;;;22.48;9.02;;;;;;;;;;7387023;19;20071;-74
2023/01/21 02:56:20;;;;;;;28.90;13.57;;;;;;;;;;7387698;19;20026;-74
2023/01/21 02:58:55;;;;;;;23.77;10.05;;;;;;;;;;7387580;19;20018;-72
2023/01/21 03:02:17;;;;;;;25.10;11.45;;;;;;;;;;7385903;19;20002;-73
2023/01/21 03:04:59;;;;;;;26.77;11.82;;;;;;;;;;7383222;19;20306;-73
2023/01/21 03:07:34;;;;;;;25.95;11.70;;;;;;;;;;7382951;19;20535;-73
2023/01/21 03:10:17;;;;;;;26.50;11.27;;;;;;;;;;7384734;19;20028;-73
2023/01/21 03:13:00;;;;;;;26.52;11.25;;;;;;;;;;7387029;19;19998;-74
2023/01/21 03:18:48;;;;;;;16.73;7.55;;;;;;;;;;7387176;19;20501;-74
2023/01/21 03:21:26;;;;;;;29.35;11.50;;;;;;;;;;7385808;19;20395;-74
2023/01/21 03:23:52;;;;;;;21.42;10.38;;;;;;;;;;7387201;19;20006;-74
2023/01/21 03:26:30;;;;;;;15.15;7.35;;;;;;;;;;7385806;19;20023;-73
2023/01/21 03:28:58;;;;;;;25.23;10.80;;;;;;;;;;7387015;19;20003;-73
2023/01/21 03:31:27;;;;;;;25.38;11.02;;;;;;;;;;7387482;19;20357;-74
2023/01/21 03:33:56;;;;;;;25.25;10.85;;;;;;;;;;7384970;19;20003;-74
2023/01/21 03:36:43;;;;;;;19.35;10.52;;;;;;;;;;7387348;19;20012;-74
2023/01/21 03:39:17;;;;;;;26.33;11.57;;;;;;;;;;7387771;19;20002;-76
2023/01/21 03:41:42;;;;;;;26.33;10.85;;;;;;;;;;7388812;19;20128;-75
2023/01/21 03:44:08;;;;;;;20.95;7.78;;;;;;;;;;7390976;19;20043;-76
2023/01/21 03:46:40;;;;;;;22.42;10.70;;;;;;;;;;7392313;19;20011;-75
2023/01/21 03:49:14;;;;;;;26.85;11.20;;;;;;;;;;7393243;19;19999;-76
2023/01/21 03:51:45;;;;;;;19.70;8.90;;;;;;;;;;7393787;19;20002;-74
2023/01/21 03:54:10;;;;;;;28.55;13.00;;;;;;;;;;7393573;19;20336;-74
2023/01/21 03:56:35;;;;;;;20.50;9.38;;;;;;;;;;7393283;19;20132;-76
2023/01/21 03:59:01;;;;;;;24.48;10.95;;;;;;;;;;7396240;19;20006;-75
2023/01/21 04:01:26;;;;;;;24.08;11.85;;;;;;;;;;7392992;19;20011;-75
2023/01/21 04:03:51;;;;;;;27.38;11.82;;;;;;;;;;7392613;19;19995;-74
2023/01/21 04:06:19;;;;;;;20.65;9.55;;;;;;;;;;7392755;19;20017;-77
2023/01/21 04:08:45;;;;;;;20.90;7.05;;;;;;;;;;7394280;19;20363;-74
2023/01/21 04:11:10;;;;;;;12.63;5.00;;;;;;;;;;7390269;19;20364;-74
2023/01/21 04:13:36;;;;;;;24.55;9.32;;;;;;;;;;7391917;19;19998;-75
2023/01/21 04:16:02;;;;;;;20.15;10.18;;;;;;;;;;7392811;19;19995;-75
2023/01/21 04:18:27;;;;;;;10.60;5.75;;;;;;;;;;7392414;19;20512;-75
2023/01/21 04:20:53;;;;;;;13.05;6.07;;;;;;;;;;7388795;19;20035;-75
2023/01/21 04:23:18;;;;;;;21.73;8.98;;;;;;;;;;7390044;19;20015;-76
2023/01/21 04:25:46;;;;;;;19.02;9.60;;;;;;;;;;7391850;19;20002;-75
2023/01/21 04:28:12;;;;;;;20.30;9.02;;;;;;;;;;7387672;19;20010;-75
2023/01/21 04:30:37;;;;;;;21.45;9.88;;;;;;;;;;7389585;19;19998;-75
2023/01/21 04:33:02;;;;;;;12.73;6.32;;;;;;;;;;7391279;19;20006;-75
2023/01/21 04:35:28;;;;;;;21.50;9.52;;;;;;;;;;7392835;19;20003;-75
2023/01/21 04:37:53;;;;;;;23.23;9.32;;;;;;;;;;7391574;19;19999;-75
2023/01/21 04:40:19;;;;;;;26.88;10.18;;;;;;;;;;7390036;19;20122;-75
2023/01/21 04:42:44;;;;;;;21.33;10.27;;;;;;;;;;7391369;19;20002;-75
2023/01/21 04:45:10;;;;;;;24.20;10.55;;;;;;;;;;7391875;19;20020;-76
2023/01/21 04:47:35;;;;;;;16.75;8.57;;;;;;;;;;7390019;19;20024;-75
2023/01/21 04:50:03;;;;;;;23.73;10.77;;;;;;;;;;7391318;19;20336;-75
2023/01/21 04:52:29;;;;;;;20.52;8.98;;;;;;;;;;7389428;19;20003;-75
2023/01/21 04:54:54;;;;;;;24.30;10.05;;;;;;;;;;7389842;19;20006;-75
2023/01/21 04:57:19;;;;;;;21.73;9.50;;;;;;;;;;7391459;19;20002;-76
2023/01/21 04:59:45;;;;;;;18.98;9.05;;;;;;;;;;7389864;19;19998;-76
2023/01/21 05:02:10;;;;;;;24.95;11.05;;;;;;;;;;7391321;19;19999;-75
2023/01/21 05:04:36;;;;;;;28.90;11.07;;;;;;;;;;7390710;19;20392;-75
2023/01/21 05:07:01;;;;;;;23.10;10.38;;;;;;;;;;7391146;19;20006;-75
2023/01/21 05:09:27;;;;;;;21.35;10.82;;;;;;;;;;7391305;19;20013;-75
2023/01/21 05:11:52;;;;;;;20.08;9.40;;;;;;;;;;7393710;19;20349;-75
2023/01/21 05:14:18;;;;;;;19.88;9.07;;;;;;;;;;7394300;19;19999;-76
2023/01/21 05:16:43;;;;;;;26.30;11.02;;;;;;;;;;7395988;19;20003;-75
2023/01/21 05:19:09;;;;;;;25.48;10.70;;;;;;;;;;7397502;19;20010;-76
2023/01/21 05:21:34;;;;;;;23.67;10.82;;;;;;;;;;7390648;19;20027;-75
2023/01/21 05:23:59;;;;;;;22.38;9.80;;;;;;;;;;7389663;19;20006;-75
2023/01/21 05:26:25;;;;;;;25.95;8.93;;;;;;;;;;7390128;19;20009;-75
2023/01/21 05:28:50;;;;;;;20.67;9.65;;;;;;;;;;7389615;19;20007;-76
2023/01/21 05:31:15;;;;;;;22.73;11.00;;;;;;;;;;7391301;19;20006;-76
2023/01/21 05:33:42;;;;;;;20.65;10.18;;;;;;;;;;7389093;19;20010;-76
2023/01/21 05:36:08;;;;;;;27.52;11.15;;;;;;;;;;7389365;19;20062;-76
2023/01/21 05:38:34;;;;;;;19.02;9.60;;;;;;;;;;7389609;19;20009;-76
2023/01/21 05:41:00;;;;;;;17.00;8.15;;;;;;;;;;7388355;19;19999;-75
2023/01/21 05:43:26;;;;;;;27.80;10.57;;;;;;;;;;7389829;19;20070;-75
2023/01/21 05:45:52;;;;;;;23.23;9.98;;;;;;;;;;7389905;19;20091;-75
2023/01/21 05:48:17;;;;;;;23.92;9.73;;;;;;;;;;7386342;19;20019;-76
2023/01/21 05:50:43;;;;;;;24.27;9.20;;;;;;;;;;7386903;19;20002;-76
2023/01/21 05:53:08;;;;;;;12.25;6.13;;;;;;;;;;7389362;19;20333;-77
2023/01/21 05:55:35;;;;;;;21.38;8.90;;;;;;;;;;7389885;19;20472;-76
2023/01/21 05:58:01;;;;;;;19.33;9.10;;;;;;;;;;7392517;19;20347;-76
2023/01/21 06:00:26;;;;;;;20.00;9.57;;;;;;;;;;7386789;19;20002;-77
2023/01/21 06:02:51;;;;;;;20.77;9.48;;;;;;;;;;7389476;19;20086;-75
2023/01/21 06:05:17;;;;;;;21.02;8.88;;;;;;;;;;7389064;19;20292;-76
2023/01/21 06:07:42;;;;;;;27.05;9.27;;;;;;;;;;7389121;19;19998;-77
2023/01/21 06:10:08;;;;;;;20.33;9.48;;;;;;;;;;7390569;19;20005;-76
2023/01/21 06:12:33;;;;;;;20.33;9.00;;;;;;;;;;7388367;19;20338;-76
2023/01/21 06:14:59;;;;;;;17.83;8.85;;;;;;;;;;7390218;19;20005;-76
2023/01/21 06:17:25;;;;;;;26.55;10.00;;;;;;;;;;7389829;19;19995;-76
2023/01/21 06:19:50;;;;;;;31.33;10.80;;;;;;;;;;7389815;19;20013;-76
2023/01/21 06:22:16;;;;;;;25.52;9.52;;;;;;;;;;7389697;19;20003;-77
2023/01/21 06:24:41;;;;;;;27.63;10.63;;;;;;;;;;7389126;19;20019;-76
2023/01/21 06:27:07;;;;;;;21.10;10.32;;;;;;;;;;7388644;19;19998;-76
2023/01/21 06:29:32;;;;;;;30.63;11.32;;;;;;;;;;7389021;19;19998;-75
2023/01/21 06:31:57;;;;;;;28.63;10.90;;;;;;;;;;7387232;19;20009;-77
2023/01/21 06:34:23;;;;;;;35.10;12.38;;;;;;;;;;7388125;19;20058;-76
2023/01/21 06:36:48;;;;;;;29.88;10.65;;;;;;;;;;7388652;19;19999;-78
2023/01/21 06:39:13;;;;;;;20.80;9.68;;;;;;;;;;7388262;19;20020;-76
2023/01/21 06:41:39;;;;;;;31.13;11.25;;;;;;;;;;7388298;19;19995;-77
2023/01/21 06:44:05;;;;;;;29.90;11.77;;;;;;;;;;7388101;19;20058;-77
2023/01/21 06:46:30;;;;;;;28.83;10.27;;;;;;;;;;7388561;19;20002;-77
2023/01/21 06:48:56;;;;;;;23.85;10.35;;;;;;;;;;7388559;19;20115;-77
2023/01/21 06:51:21;;;;;;;25.65;11.23;;;;;;;;;;7389373;19;20065;-75
2023/01/21 06:53:46;;;;;;;25.85;10.40;;;;;;;;;;7387632;19;20015;-76
2023/01/21 06:56:12;;;;;;;23.70;10.35;;;;;;;;;;7388742;19;20006;-76
2023/01/21 06:58:37;;;;;;;22.48;10.20;;;;;;;;;;7387011;19;20007;-75
2023/01/21 07:01:02;;;;;;;22.88;10.57;;;;;;;;;;7385368;19;19999;-76
2023/01/21 07:03:28;;;;;;;24.52;9.70;;;;;;;;;;7388586;19;20022;-74
2023/01/21 07:05:54;;;;;;;21.92;10.20;;;;;;;;;;7389113;19;20027;-76
2023/01/21 07:08:19;;;;;;;26.52;10.48;;;;;;;;;;7386320;19;20002;-76
2023/01/21 07:10:45;;;;;;;23.00;10.07;;;;;;;;;;7407041;19;20006;-77
2023/01/21 07:13:10;;;;;;;22.75;9.27;;;;;;;;;;7411899;19;20019;-76
2023/01/21 07:15:35;;;;;;;24.60;9.63;;;;;;;;;;7405426;19;20002;-76
2023/01/21 07:18:01;;;;;;;26.48;9.63;;;;;;;;;;7402189;19;20010;-76
2023/01/21 07:20:26;;;;;;;27.25;10.40;;;;;;;;;;7387585;19;20005;-76
2023/01/21 07:22:51;;;;;;;19.75;9.27;;;;;;;;;;7384683;19;19994;-76
2023/01/21 07:25:17;;;;;;;23.00;8.75;;;;;;;;;;7387596;19;20032;-76
2023/01/21 07:27:45;;;;;;;20.58;9.00;;;;;;;;;;7386067;19;20247;-76
2023/01/21 07:30:17;;;;;;;20.50;9.10;;;;;;;;;;7389495;19;20003;-76
2023/01/21 07:32:44;;;;;;;19.50;8.18;;;;;;;;;;7390342;19;20438;-76
2023/01/21 07:35:10;;;;;;;19.80;7.88;;;;;;;;;;7391638;19;20308;-76
2023/01/21 07:37:35;;;;;;;22.73;9.23;;;;;;;;;;7386800;19;19999;-76
2023/01/21 07:40:01;;;;;;;20.50;8.73;;;;;;;;;;7383819;19;20353;-75
2023/01/21 07:42:26;;;;;;;21.85;9.13;;;;;;;;;;7390179;19;20019;-77
2023/01/21 07:44:51;;;;;;;21.60;9.02;;;;;;;;;;7385758;19;20002;-76
2023/01/21 07:47:17;;;;;;;19.75;8.07;;;;;;;;;;7388685;19;21100;-76
2023/01/21 07:49:42;;;;;;;17.52;8.07;;;;;;;;;;7389690;19;19998;-75
2023/01/21 07:52:07;;;;;;;17.20;8.70;;;;;;;;;;7386382;19;19999;-76
2023/01/21 07:54:33;;;;;;;20.75;9.02;;;;;;;;;;7387901;19;19991;-75
2023/01/21 07:56:58;;;;;;;21.77;9.10;;;;;;;;;;7384985;19;19999;-75
2023/01/21 07:59:23;;;;;;;18.88;8.00;;;;;;;;;;7384110;19;20018;-76
2023/01/21 08:01:48;;;;;;;19.00;8.65;;;;;;;;;;7382258;19;20011;-76
2023/01/21 08:04:14;;;;;;;18.60;8.90;;;;;;;;;;7388343;19;20005;-77
2023/01/21 08:06:42;;;;;;;18.17;7.97;;;;;;;;;;7384571;19;20478;-76
2023/01/21 08:09:08;;;;;;;18.88;9.63;;;;;;;;;;7383818;19;20023;-78
2023/01/21 08:11:34;;;;;;;20.33;7.90;;;;;;;;;;7384275;19;20003;-77
2023/01/21 08:13:59;;;;;;;17.75;8.30;;;;;;;;;;7385358;19;20464;-74
2023/01/21 08:16:25;;;;;;;19.08;8.95;;;;;;;;;;7385533;19;19998;-77
2023/01/21 08:18:50;;;;;;;18.27;8.05;;;;;;;;;;7385988;19;20059;-74
2023/01/21 08:21:15;;;;;;;17.52;7.68;;;;;;;;;;7384472;19;20800;-75
2023/01/21 08:23:41;;;;;;;19.58;9.82;;;;;;;;;;7383439;19;20002;-77
2023/01/21 08:26:06;;;;;;;23.88;9.57;;;;;;;;;;7384599;19;19995;-77
2023/01/21 08:28:32;;;;;;;24.70;10.80;;;;;;;;;;7387464;19;19995;-76
2023/01/21 08:31:10;;;;;;;18.70;9.30;;;;;;;;;;7391149;19;20023;-76
2023/01/21 08:33:36;;;;;;;22.17;10.35;;;;;;;;;;7387090;19;20001;-76
2023/01/21 08:36:04;;;;;;;19.20;9.13;;;;;;;;;;7388341;19;19994;-76
2023/01/21 08:38:30;;;;;;;20.85;9.57;;;;;;;;;;7388403;19;20524;-76
2023/01/21 08:40:57;;;;;;;26.20;10.48;;;;;;;;;;7392199;19;20376;-75
2023/01/21 08:43:23;;;;;;;18.83;9.32;;;;;;;;;;7392384;19;20036;-75
2023/01/21 08:45:48;;;;;;;23.45;9.68;;;;;;;;;;7391827;19;20512;-74
2023/01/21 08:48:13;;;;;;;20.90;10.77;;;;;;;;;;7388176;19;20003;-75
2023/01/21 08:50:39;;;;;;;23.05;10.48;;;;;;;;;;7377942;19;20035;-75
2023/01/21 08:53:04;;;;;;;26.95;10.50;;;;;;;;;;7385583;19;20082;-75
2023/01/21 08:55:30;;;;;;;23.88;10.00;;;;;;;;;;7386142;19;20037;-75
2023/01/21 08:57:57;;;;;;;26.95;10.85;;;;;;;;;;7385260;19;20034;-75
2023/01/21 09:00:23;;;;;;;29.15;10.52;;;;;;;;;;7386789;19;19990;-74
2023/01/21 09:02:49;;;;;;;25.63;10.00;;;;;;;;;;7385953;19;20531;-75
2023/01/21 09:05:14;;;;;;;26.33;10.48;;;;;;;;;;7386155;19;20002;-74
2023/01/21 09:07:39;;;;;;;25.17;8.35;;;;;;;;;;7388041;19;20884;-82
2023/01/21 09:10:05;;;;;;;23.98;11.13;;;;;;;;;;7384397;19;20013;-75
2023/01/21 09:12:31;;;;;;;20.33;9.23;;;;;;;;;;7383956;19;20003;-74
2023/01/21 09:14:56;;;;;;;20.10;9.02;;;;;;;;;;7390007;19;20013;-75
2023/01/21 09:17:22;;;;;;;19.48;9.45;;;;;;;;;;7387065;19;20025;-75
2023/01/21 09:19:48;;;;;;;15.07;8.15;;;;;;;;;;7390204;19;20447;-77
2023/01/21 09:22:14;;;;;;;21.27;9.60;;;;;;;;;;7385577;19;20023;-76
2023/01/21 09:24:39;;;;;;;21.98;9.50;;;;;;;;;;7389412;19;20086;-73
2023/01/21 09:27:06;;;;;;;21.98;9.55;;;;;;;;;;7386039;19;20497;-73
2023/01/21 09:29:31;;;;;;;19.27;9.82;;;;;;;;;;7385637;19;20003;-72
2023/01/21 09:31:56;;;;;;;25.30;9.80;;;;;;;;;;7388604;19;20313;-70
2023/01/21 09:34:22;;;;;;;19.50;8.93;;;;;;;;;;7385439;19;20006;-72
2023/01/21 09:36:47;;;;;;;17.90;7.93;;;;;;;;;;7386168;19;20020;-72
2023/01/21 09:39:12;;;;;;;19.30;9.40;;;;;;;;;;7384674;19;20392;-72
2023/01/21 09:41:44;;;;;;;21.08;9.35;;;;;;;;;;7386835;19;20015;-69
2023/01/21 09:44:34;;;;;;;18.80;9.48;;;;;;;;;;7387308;19;20014;-71
2023/01/21 09:47:23;;;;;;;24.80;10.05;;;;;;;;;;7387899;19;20003;-70
2023/01/21 09:49:54;;;;;;;26.83;9.82;;;;;;;;;;7387128;19;20003;-71
2023/01/21 09:52:22;;;;;;;42.40;9.95;;;;;;;;;;7389849;19;20023;-70
2023/01/21 09:54:48;;;;;;;26.67;9.93;;;;;;;;;;7386844;19;20007;-70
2023/01/21 09:57:40;;;;;;;36.45;8.73;;;;;;;;;;7390404;19;20500;-71
2023/01/21 10:00:26;;;;;;;7.80;4.00;;;;;;;;;;7386392;19;20006;-71
2023/01/21 10:03:00;;;;;;;17.13;7.68;;;;;;;;;;7387575;19;20002;-71
2023/01/21 10:05:57;;;;;;;17.65;6.22;;;;;;;;;;7385190;19;20003;-70
2023/01/21 10:08:29;;;;;;;17.15;8.07;;;;;;;;;;7386400;19;20007;-71
2023/01/21 10:11:25;;;;;;;17.42;7.63;;;;;;;;;;7390682;19;21075;-71
2023/01/21 10:14:25;;;;;;;13.82;5.85;;;;;;;;;;7387867;19;20370;-71
2023/01/21 10:16:59;;;;;;;10.82;4.82;;;;;;;;;;7387728;19;20452;-72
2023/01/21 10:19:35;;;;;;;16.80;7.70;;;;;;;;;;7382412;19;20495;-70
2023/01/21 10:22:24;;;;;;;14.73;7.30;;;;;;;;;;7387978;19;20047;-71
2023/01/21 10:25:28;;;;;;;15.50;7.80;;;;;;;;;;7389001;19;20019;-71
2023/01/21 10:27:58;;;;;;;30.55;9.05;;;;;;;;;;7387802;19;20004;-72
2023/01/21 10:30:30;;;;;;;29.25;8.98;;;;;;;;;;7387609;19;20006;-73
2023/01/21 10:32:55;;;;;;;22.63;6.50;;;;;;;;;;7386118;19;20469;-70
2023/01/21 10:35:33;;;;;;;15.25;6.97;;;;;;;;;;7391274;19;20007;-70
2023/01/21 10:38:12;;;;;;;22.27;7.00;;;;;;;;;;7391848;19;20388;-70
2023/01/21 10:40:47;;;;;;;15.30;6.40;;;;;;;;;;7387664;19;20115;-71
2023/01/21 10:43:37;;;;;;;23.52;7.32;;;;;;;;;;7385060;19;20370;-70
2023/01/21 10:46:40;;;;;;;23.02;7.05;;;;;;;;;;7390193;19;20013;-69
2023/01/21 10:49:24;;;;;;;19.70;7.57;;;;;;;;;;7389258;19;20590;-70
2023/01/21 10:51:57;;;;;;;15.98;6.68;;;;;;;;;;7388248;19;20002;-69
2023/01/21 10:54:44;;;;;;;18.67;7.57;;;;;;;;;;7384991;19;20002;-70
2023/01/21 10:57:21;;;;;;;19.25;9.27;;;;;;;;;;7388244;19;20015;-71
2023/01/21 10:59:48;;;;;;;11.93;5.35;;;;;;;;;;7386038;19;20007;-72
2023/01/21 11:02:20;;;;;;;15.45;7.53;;;;;;;;;;7385689;19;20338;-69
2023/01/21 11:04:45;;;;;;;8.25;4.07;;;;;;;;;;7382677;19;20022;-70
2023/01/21 11:07:15;;;;;;;16.35;6.57;;;;;;;;;;7384393;19;20096;-70
2023/01/21 11:09:45;;;;;;;9.60;5.00;;;;;;;;;;7377474;19;20461;-69
2023/01/21 11:12:20;;;;;;;17.45;5.40;;;;;;;;;;7382989;19;20010;-69
2023/01/21 11:15:01;;;;;;;17.15;5.05;;;;;;;;;;7386306;19;20040;-68
2023/01/21 11:17:36;;;;;;;13.48;5.47;;;;;;;;;;7386290;19;20090;-68
2023/01/21 11:20:24;;;;;;;11.68;5.28;;;;;;;;;;7385832;19;20006;-69
2023/01/21 11:22:50;;;;;;;19.50;6.78;;;;;;;;;;7384340;19;20013;-69
2023/01/21 11:25:23;;;;;;;13.23;5.00;;;;;;;;;;7385087;19;20003;-69
2023/01/21 11:27:48;;;;;;;15.38;6.10;;;;;;;;;;7384653;19;20025;-70
2023/01/21 11:30:37;;;;;;;17.02;6.10;;;;;;;;;;7382919;19;20469;-70
2023/01/21 11:33:32;;;;;;;17.23;6.88;;;;;;;;;;7386047;19;19995;-70
2023/01/21 11:36:11;;;;;;;12.30;5.70;;;;;;;;;;7381541;19;20011;-70
2023/01/21 11:38:37;;;;;;;13.50;5.10;;;;;;;;;;7381563;19;20010;-69
2023/01/21 11:41:15;;;;;;;16.70;7.57;;;;;;;;;;7382405;19;20018;-70
2023/01/21 11:43:44;;;;;;;15.40;7.47;;;;;;;;;;7379777;19;20017;-70
2023/01/21 11:46:42;;;;;;;11.60;5.20;;;;;;;;;;7383293;19;20066;-69
2023/01/21 11:49:07;;;;;;;19.83;6.82;;;;;;;;;;7380242;19;20002;-69
2023/01/21 11:51:33;;;;;;;15.80;6.25;;;;;;;;;;7372185;19;20025;-69
2023/01/21 11:54:14;;;;;;;13.80;6.25;;;;;;;;;;7382388;19;19999;-68
2023/01/21 11:56:50;;;;;;;12.98;5.78;;;;;;;;;;7377199;19;20019;-68
2023/01/21 11:59:32;;;;;;;14.02;7.05;;;;;;;;;;7385256;19;20397;-68
2023/01/21 12:02:15;;;;;;;9.77;5.15;;;;;;;;;;7384625;19;20006;-68
2023/01/21 12:05:03;;;;;;;11.25;6.07;;;;;;;;;;7395887;19;20434;-68
2023/01/21 12:07:35;;;;;;;11.20;4.93;;;;;;;;;;7387124;19;20441;-68
2023/01/21 12:10:16;;;;;;;17.17;7.15;;;;;;;;;;7386593;19;19999;-70
2023/01/21 12:13:03;;;;;;;11.38;6.53;;;;;;;;;;7390060;19;20007;-69
2023/01/21 12:15:34;;;;;;;14.10;6.43;;;;;;;;;;7385670;19;20440;-70
2023/01/21 12:18:32;;;;;;;12.75;5.68;;;;;;;;;;7397000;19;20031;-70
2023/01/21 12:21:10;;;;;;;9.55;5.30;;;;;;;;;;7391647;19;20078;-71
2023/01/21 12:23:49;;;;;;;9.52;4.32;;;;;;;;;;7395389;19;20006;-70
2023/01/21 12:26:34;;;;;;;11.75;5.88;;;;;;;;;;7392965;19;19990;-70
2023/01/21 12:29:20;;;;;;;8.77;4.97;;;;;;;;;;7392777;19;20307;-71
2023/01/21 12:32:30;;;;;;;8.75;4.40;;;;;;;;;;7395540;19;20006;-70
2023/01/21 12:35:04;;;;;;;8.13;4.28;;;;;;;;;;7392523;19;19991;-69
2023/01/21 12:37:36;;;;;;;14.52;4.82;;;;;;;;;;7398171;19;19998;-70
2023/01/21 12:40:23;;;;;;;7.38;4.32;;;;;;;;;;7395372;19;20002;-70
2023/01/21 12:42:54;;;;;;;11.25;4.65;;;;;;;;;;7390375;19;20014;-70
2023/01/21 12:45:24;;;;;;;9.10;3.75;;;;;;;;;;7394146;19;19991;-70
2023/01/21 12:47:57;;;;;;;8.70;4.25;;;;;;;;;;7394097;19;20522;-69
2023/01/21 12:50:39;;;;;;;10.13;4.45;;;;;;;;;;7391600;19;19998;-71
2023/01/21 12:53:08;;;;;;;8.90;4.10;;;;;;;;;;7390870;19;20392;-70
2023/01/21 12:55:42;;;;;;;7.70;3.92;;;;;;;;;;7393192;19;20006;-70
2023/01/21 12:58:12;;;;;;;19.27;4.88;;;;;;;;;;7393736;19;20361;-69
2023/01/21 13:00:42;;;;;;;8.65;4.15;;;;;;;;;;7388193;19;20321;-69
2023/01/21 13:03:37;;;;;;;13.35;5.07;;;;;;;;;;7389095;19;20452;-70
2023/01/21 13:06:11;;;;;;;8.35;4.05;;;;;;;;;;7392694;19;20451;-69
2023/01/21 13:08:54;;;;;;;7.88;4.22;;;;;;;;;;7390086;19;20074;-69
2023/01/21 13:11:28;;;;;;;9.85;4.05;;;;;;;;;;7389254;19;20019;-69
2023/01/21 13:14:18;;;;;;;7.47;3.92;;;;;;;;;;7389175;19;20087;-69
2023/01/21 13:16:49;;;;;;;10.52;4.50;;;;;;;;;;7390061;19;20425;-70
2023/01/21 13:19:15;;;;;;;13.27;4.22;;;;;;;;;;7390589;19;20062;-70
2023/01/21 13:22:04;;;;;;;10.18;4.30;;;;;;;;;;7387778;19;19998;-69
2023/01/21 13:25:00;;;;;;;13.60;5.05;;;;;;;;;;7390200;19;20002;-69
2023/01/21 13:27:44;;;;;;;12.32;4.45;;;;;;;;;;7386216;19;20008;-70
2023/01/21 13:30:17;;;;;;;9.15;4.38;;;;;;;;;;7386237;19;20440;-70
2023/01/21 13:32:48;;;;;;;7.82;4.00;;;;;;;;;;7383833;19;20579;-70
2023/01/21 13:35:25;;;;;;;9.15;4.50;;;;;;;;;;7386793;19;20007;-70
2023/01/21 13:37:58;;;;;;;8.35;3.88;;;;;;;;;;7385029;19;20025;-70
2023/01/21 13:40:37;;;;;;;14.82;4.35;;;;;;;;;;7246410;19;2725291;-71
2023/01/21 13:43:13;;;;;;;10.48;4.20;;;;;;;;;;7386630;19;20002;-70
2023/01/21 13:45:47;;;;;;;10.45;4.63;;;;;;;;;;7388025;19;20299;-70
2023/01/21 13:48:25;;;;;;;8.05;3.10;;;;;;;;;;7387022;19;20002;-70
2023/01/21 13:51:09;;;;;;;7.15;3.65;;;;;;;;;;7388168;19;20439;-70
2023/01/21 13:53:34;;;;;;;13.32;4.53;;;;;;;;;;7387058;19;19995;-70
2023/01/21 13:56:37;;;;;;;6.03;3.08;;;;;;;;;;7389802;19;20009;-70
2023/01/21 13:59:33;;;;;;;9.20;3.55;;;;;;;;;;7390644;19;20026;-70
2023/01/21 14:02:12;;;;;;;11.25;3.70;;;;;;;;;;7391861;19;20003;-70
2023/01/21 14:04:49;;;;;;;5.88;3.55;;;;;;;;;;7394051;19;20003;-69
2023/01/21 14:07:43;;;;;;;5.30;2.72;;;;;;;;;;7391694;19;20014;-70
2023/01/21 14:10:30;;;;;;;7.57;3.10;;;;;;;;;;7390090;19;19999;-71
2023/01/21 14:13:16;;;;;;;6.72;3.00;;;;;;;;;;7390283;19;20066;-69
2023/01/21 14:15:50;;;;;;;4.75;2.60;;;;;;;;;;7391259;19;20364;-69
2023/01/21 14:18:56;;;;;;;7.65;3.20;;;;;;;;;;7391227;19;19994;-70
2023/01/21 14:21:28;;;;;;;10.98;3.80;;;;;;;;;;7386339;19;20069;-70
2023/01/21 14:24:13;;;;;;;;;;;;;;;;;;7386349;19;20015;-70
2023/01/21 14:26:56;;;;;;;4.53;2.63;;;;;;;;;;7386975;19;19921;-70
2023/01/21 14:29:21;;;;;;;7.45;2.90;;;;;;;;;;7388568;19;19995;-70
2023/01/21 14:31:55;;;;;;;7.70;3.80;;;;;;;;;;7390792;19;19998;-70
2023/01/21 14:34:37;;;;;;;8.23;3.63;;;;;;;;;;7389629;19;19999;-71
2023/01/21 14:37:13;;;;;;;7.60;3.38;;;;;;;;;;7388393;19;20010;-70
2023/01/21 14:39:56;;;;;;;6.85;2.95;;;;;;;;;;7388085;19;19999;-69
2023/01/21 14:42:41;;;;;;;6.80;3.17;;;;;;;;;;7388413;19;19999;-69
2023/01/21 14:45:07;;;;;;;7.38;3.63;;;;;;;;;;7387921;19;20004;-69
2023/01/21 14:47:41;;;;;;;6.82;3.85;;;;;;;;;;7386694;19;20338;-70
2023/01/21 14:50:07;;;;;;;8.50;3.15;;;;;;;;;;7385763;19;20087;-71
2023/01/21 14:52:42;;;;;;;6.68;3.72;;;;;;;;;;7386554;19;20077;-71
2023/01/21 14:55:29;;;;;;;7.53;3.28;;;;;;;;;;7387173;19;19998;-70
2023/01/21 14:57:55;;;;;;;6.22;2.88;;;;;;;;;;7387263;19;19997;-69